sensor_id;sensor_type;location;lat;lon;timestamp;P1;durP1;ratioP1;P2;durP2;ratioP2
74908;SDS011;63468;52.058;4.824;2023-02-28T00:01:12;9.40;;;4.15;;
74908;SDS011;63468;52.058;4.824;2023-02-28T00:03:38;8.40;;;3.58;;
74908;SDS011;63468;52.058;4.824;2023-02-28T00:06:04;13.55;;;4.22;;
74908;SDS011;63468;52.058;4.824;2023-02-28T00:08:30;9.38;;;3.50;;
74908;SDS011;63468;52.058;4.824;2023-02-28T00:10:55;13.75;;;3.60;;
74908;SDS011;63468;52.058;4.824;2023-02-28T00:13:20;7.95;;;3.47;;
74908;SDS011;63468;52.058;4.824;2023-02-28T00:15:46;9.43;;;3.20;;
74908;SDS011;63468;52.058;4.824;2023-02-28T00:18:11;8.82;;;3.58;;
74908;SDS011;63468;52.058;4.824;2023-02-28T00:20:37;7.35;;;3.00;;
74908;SDS011;63468;52.058;4.824;2023-02-28T00:23:02;8.38;;;3.40;;
74908;SDS011;63468;52.058;4.824;2023-02-28T00:25:28;8.32;;;3.30;;
74908;SDS011;63468;52.058;4.824;2023-02-28T00:27:53;9.95;;;3.42;;
74908;SDS011;63468;52.058;4.824;2023-02-28T00:30:19;7.00;;;3.20;;
74908;SDS011;63468;52.058;4.824;2023-02-28T00:32:46;10.30;;;3.65;;
74908;SDS011;63468;52.058;4.824;2023-02-28T00:35:12;9.15;;;3.40;;
74908;SDS011;63468;52.058;4.824;2023-02-28T00:37:37;9.80;;;3.55;;
74908;SDS011;63468;52.058;4.824;2023-02-28T00:40:03;8.40;;;3.42;;
74908;SDS011;63468;52.058;4.824;2023-02-28T00:42:32;10.70;;;3.53;;
74908;SDS011;63468;52.058;4.824;2023-02-28T00:44:58;8.63;;;3.47;;
74908;SDS011;63468;52.058;4.824;2023-02-28T00:47:23;8.63;;;3.83;;
74908;SDS011;63468;52.058;4.824;2023-02-28T00:49:49;9.95;;;3.85;;
74908;SDS011;63468;52.058;4.824;2023-02-28T00:52:14;9.25;;;3.65;;
74908;SDS011;63468;52.058;4.824;2023-02-28T00:54:39;8.25;;;3.40;;
74908;SDS011;63468;52.058;4.824;2023-02-28T00:57:05;7.32;;;3.78;;
74908;SDS011;63468;52.058;4.824;2023-02-28T00:59:30;9.65;;;3.58;;
74908;SDS011;63468;52.058;4.824;2023-02-28T01:01:55;8.77;;;3.67;;
74908;SDS011;63468;52.058;4.824;2023-02-28T01:04:21;11.30;;;3.75;;
74908;SDS011;63468;52.058;4.824;2023-02-28T01:06:46;6.95;;;3.47;;
74908;SDS011;63468;52.058;4.824;2023-02-28T01:09:11;7.75;;;3.97;;
74908;SDS011;63468;52.058;4.824;2023-02-28T01:11:37;6.97;;;3.28;;
74908;SDS011;63468;52.058;4.824;2023-02-28T01:14:03;9.48;;;3.95;;
74908;SDS011;63468;52.058;4.824;2023-02-28T01:16:29;10.13;;;3.63;;
74908;SDS011;63468;52.058;4.824;2023-02-28T01:18:55;8.90;;;3.67;;
74908;SDS011;63468;52.058;4.824;2023-02-28T01:21:20;10.98;;;3.60;;
74908;SDS011;63468;52.058;4.824;2023-02-28T01:23:46;10.07;;;3.80;;
74908;SDS011;63468;52.058;4.824;2023-02-28T01:26:14;9.82;;;3.75;;
74908;SDS011;63468;52.058;4.824;2023-02-28T01:28:41;9.82;;;3.83;;
74908;SDS011;63468;52.058;4.824;2023-02-28T01:31:07;8.75;;;3.47;;
74908;SDS011;63468;52.058;4.824;2023-02-28T01:33:33;11.88;;;3.70;;
74908;SDS011;63468;52.058;4.824;2023-02-28T01:36:00;8.52;;;3.60;;
74908;SDS011;63468;52.058;4.824;2023-02-28T01:38:26;11.65;;;3.65;;
74908;SDS011;63468;52.058;4.824;2023-02-28T01:40:51;9.05;;;4.47;;
74908;SDS011;63468;52.058;4.824;2023-02-28T01:43:27;9.13;;;3.72;;
74908;SDS011;63468;52.058;4.824;2023-02-28T01:45:54;9.45;;;3.83;;
74908;SDS011;63468;52.058;4.824;2023-02-28T01:48:21;8.48;;;3.50;;
74908;SDS011;63468;52.058;4.824;2023-02-28T01:50:51;12.57;;;3.65;;
74908;SDS011;63468;52.058;4.824;2023-02-28T01:53:19;9.77;;;3.58;;
74908;SDS011;63468;52.058;4.824;2023-02-28T01:55:49;9.57;;;4.13;;
74908;SDS011;63468;52.058;4.824;2023-02-28T01:58:16;7.82;;;3.72;;
74908;SDS011;63468;52.058;4.824;2023-02-28T02:00:42;9.23;;;4.43;;
74908;SDS011;63468;52.058;4.824;2023-02-28T02:03:08;7.95;;;3.60;;
74908;SDS011;63468;52.058;4.824;2023-02-28T02:05:36;12.57;;;4.28;;
74908;SDS011;63468;52.058;4.824;2023-02-28T02:08:04;11.25;;;4.40;;
74908;SDS011;63468;52.058;4.824;2023-02-28T02:13:08;8.75;;;3.85;;
74908;SDS011;63468;52.058;4.824;2023-02-28T02:15:49;11.40;;;4.30;;
74908;SDS011;63468;52.058;4.824;2023-02-28T02:18:30;8.77;;;4.15;;
74908;SDS011;63468;52.058;4.824;2023-02-28T02:26:34;10.35;;;3.40;;
74908;SDS011;63468;52.058;4.824;2023-02-28T02:40:05;7.80;;;3.55;;
74908;SDS011;63468;52.058;4.824;2023-02-28T02:45:11;8.80;;;3.53;;
74908;SDS011;63468;52.058;4.824;2023-02-28T02:47:48;11.00;;;4.32;;
74908;SDS011;63468;52.058;4.824;2023-02-28T02:50:17;8.98;;;4.28;;
74908;SDS011;63468;52.058;4.824;2023-02-28T02:52:48;10.73;;;3.80;;
74908;SDS011;63468;52.058;4.824;2023-02-28T02:55:16;9.38;;;4.80;;
74908;SDS011;63468;52.058;4.824;2023-02-28T02:57:46;10.15;;;4.57;;
74908;SDS011;63468;52.058;4.824;2023-02-28T03:00:13;11.05;;;4.45;;
74908;SDS011;63468;52.058;4.824;2023-02-28T03:02:41;10.55;;;4.13;;
74908;SDS011;63468;52.058;4.824;2023-02-28T03:05:09;8.43;;;3.97;;
74908;SDS011;63468;52.058;4.824;2023-02-28T03:07:39;10.50;;;4.03;;
74908;SDS011;63468;52.058;4.824;2023-02-28T03:10:25;7.20;;;3.67;;
74908;SDS011;63468;52.058;4.824;2023-02-28T03:16:05;12.45;;;3.97;;
74908;SDS011;63468;52.058;4.824;2023-02-28T03:21:38;9.68;;;4.10;;
74908;SDS011;63468;52.058;4.824;2023-02-28T03:24:18;8.77;;;4.28;;
74908;SDS011;63468;52.058;4.824;2023-02-28T03:27:09;9.13;;;3.83;;
74908;SDS011;63468;52.058;4.824;2023-02-28T03:29:39;10.13;;;4.95;;
74908;SDS011;63468;52.058;4.824;2023-02-28T03:32:15;8.73;;;3.90;;
74908;SDS011;63468;52.058;4.824;2023-02-28T03:34:48;8.98;;;4.07;;
74908;SDS011;63468;52.058;4.824;2023-02-28T03:37:19;8.48;;;4.20;;
74908;SDS011;63468;52.058;4.824;2023-02-28T03:39:47;9.63;;;4.40;;
74908;SDS011;63468;52.058;4.824;2023-02-28T03:42:17;10.32;;;4.50;;
74908;SDS011;63468;52.058;4.824;2023-02-28T03:44:54;8.55;;;3.70;;
74908;SDS011;63468;52.058;4.824;2023-02-28T03:52:14;11.60;;;5.00;;
74908;SDS011;63468;52.058;4.824;2023-02-28T03:54:45;8.77;;;4.07;;
74908;SDS011;63468;52.058;4.824;2023-02-28T03:57:17;7.93;;;4.45;;
74908;SDS011;63468;52.058;4.824;2023-02-28T03:59:47;9.52;;;4.95;;
74908;SDS011;63468;52.058;4.824;2023-02-28T04:02:15;11.05;;;4.80;;
74908;SDS011;63468;52.058;4.824;2023-02-28T04:04:41;11.30;;;4.72;;
74908;SDS011;63468;52.058;4.824;2023-02-28T04:07:10;12.60;;;5.25;;
74908;SDS011;63468;52.058;4.824;2023-02-28T04:09:36;10.10;;;4.88;;
74908;SDS011;63468;52.058;4.824;2023-02-28T04:12:01;12.07;;;4.85;;
74908;SDS011;63468;52.058;4.824;2023-02-28T04:14:26;12.82;;;4.70;;
74908;SDS011;63468;52.058;4.824;2023-02-28T04:16:52;14.60;;;4.72;;
74908;SDS011;63468;52.058;4.824;2023-02-28T04:19:17;10.60;;;4.93;;
74908;SDS011;63468;52.058;4.824;2023-02-28T04:21:44;8.57;;;4.32;;
74908;SDS011;63468;52.058;4.824;2023-02-28T04:24:12;9.95;;;4.50;;
74908;SDS011;63468;52.058;4.824;2023-02-28T04:26:42;12.40;;;5.55;;
74908;SDS011;63468;52.058;4.824;2023-02-28T04:29:11;12.07;;;5.30;;
74908;SDS011;63468;52.058;4.824;2023-02-28T04:31:38;12.32;;;4.90;;
74908;SDS011;63468;52.058;4.824;2023-02-28T04:34:03;13.05;;;6.13;;
74908;SDS011;63468;52.058;4.824;2023-02-28T04:36:29;9.48;;;4.57;;
74908;SDS011;63468;52.058;4.824;2023-02-28T04:38:54;16.45;;;5.68;;
74908;SDS011;63468;52.058;4.824;2023-02-28T04:41:20;15.18;;;5.80;;
74908;SDS011;63468;52.058;4.824;2023-02-28T04:43:47;8.95;;;4.75;;
74908;SDS011;63468;52.058;4.824;2023-02-28T04:46:13;13.65;;;5.68;;
74908;SDS011;63468;52.058;4.824;2023-02-28T04:48:39;17.85;;;6.60;;
74908;SDS011;63468;52.058;4.824;2023-02-28T04:51:08;11.68;;;5.72;;
74908;SDS011;63468;52.058;4.824;2023-02-28T04:53:37;13.02;;;5.90;;
74908;SDS011;63468;52.058;4.824;2023-02-28T04:56:04;11.75;;;5.47;;
74908;SDS011;63468;52.058;4.824;2023-02-28T04:58:29;10.80;;;5.55;;
74908;SDS011;63468;52.058;4.824;2023-02-28T05:01:01;12.07;;;5.25;;
74908;SDS011;63468;52.058;4.824;2023-02-28T05:03:28;11.63;;;5.70;;
74908;SDS011;63468;52.058;4.824;2023-02-28T05:05:53;13.05;;;5.70;;
74908;SDS011;63468;52.058;4.824;2023-02-28T05:08:18;19.50;;;7.20;;
74908;SDS011;63468;52.058;4.824;2023-02-28T05:10:43;10.52;;;5.43;;
74908;SDS011;63468;52.058;4.824;2023-02-28T05:13:11;16.08;;;6.80;;
74908;SDS011;63468;52.058;4.824;2023-02-28T05:15:37;12.40;;;6.13;;
74908;SDS011;63468;52.058;4.824;2023-02-28T05:18:02;13.38;;;6.07;;
74908;SDS011;63468;52.058;4.824;2023-02-28T05:20:28;12.18;;;6.30;;
74908;SDS011;63468;52.058;4.824;2023-02-28T05:22:53;15.63;;;7.43;;
74908;SDS011;63468;52.058;4.824;2023-02-28T05:25:19;13.50;;;6.18;;
74908;SDS011;63468;52.058;4.824;2023-02-28T05:27:47;15.93;;;6.25;;
74908;SDS011;63468;52.058;4.824;2023-02-28T05:30:12;13.77;;;6.50;;
74908;SDS011;63468;52.058;4.824;2023-02-28T05:32:38;13.20;;;6.20;;
74908;SDS011;63468;52.058;4.824;2023-02-28T05:35:07;13.25;;;6.65;;
74908;SDS011;63468;52.058;4.824;2023-02-28T05:37:33;16.55;;;7.30;;
74908;SDS011;63468;52.058;4.824;2023-02-28T05:39:59;14.68;;;6.47;;
74908;SDS011;63468;52.058;4.824;2023-02-28T05:42:24;17.75;;;7.43;;
74908;SDS011;63468;52.058;4.824;2023-02-28T05:44:49;14.10;;;6.97;;
74908;SDS011;63468;52.058;4.824;2023-02-28T05:47:15;15.00;;;6.53;;
74908;SDS011;63468;52.058;4.824;2023-02-28T05:49:41;14.18;;;6.00;;
74908;SDS011;63468;52.058;4.824;2023-02-28T05:52:07;12.07;;;5.75;;
74908;SDS011;63468;52.058;4.824;2023-02-28T05:54:32;11.05;;;5.53;;
74908;SDS011;63468;52.058;4.824;2023-02-28T05:56:57;11.13;;;5.15;;
74908;SDS011;63468;52.058;4.824;2023-02-28T05:59:23;12.70;;;5.63;;
74908;SDS011;63468;52.058;4.824;2023-02-28T06:01:48;10.82;;;4.60;;
74908;SDS011;63468;52.058;4.824;2023-02-28T06:04:15;10.95;;;4.90;;
74908;SDS011;63468;52.058;4.824;2023-02-28T06:06:44;10.35;;;5.03;;
74908;SDS011;63468;52.058;4.824;2023-02-28T06:09:10;14.73;;;4.72;;
74908;SDS011;63468;52.058;4.824;2023-02-28T06:11:35;10.98;;;4.93;;
74908;SDS011;63468;52.058;4.824;2023-02-28T06:14:01;14.52;;;5.18;;
74908;SDS011;63468;52.058;4.824;2023-02-28T06:16:28;10.98;;;4.50;;
74908;SDS011;63468;52.058;4.824;2023-02-28T06:18:56;10.85;;;5.10;;
74908;SDS011;63468;52.058;4.824;2023-02-28T06:21:22;10.07;;;4.47;;
74908;SDS011;63468;52.058;4.824;2023-02-28T06:23:47;11.80;;;5.22;;
74908;SDS011;63468;52.058;4.824;2023-02-28T06:26:12;12.65;;;5.25;;
74908;SDS011;63468;52.058;4.824;2023-02-28T06:28:38;10.77;;;4.90;;
74908;SDS011;63468;52.058;4.824;2023-02-28T06:31:07;11.27;;;5.78;;
74908;SDS011;63468;52.058;4.824;2023-02-28T06:33:36;13.43;;;5.55;;
74908;SDS011;63468;52.058;4.824;2023-02-28T06:36:02;11.63;;;4.97;;
74908;SDS011;63468;52.058;4.824;2023-02-28T06:38:28;8.73;;;4.90;;
74908;SDS011;63468;52.058;4.824;2023-02-28T06:40:54;8.55;;;4.60;;
74908;SDS011;63468;52.058;4.824;2023-02-28T06:43:20;10.77;;;4.88;;
74908;SDS011;63468;52.058;4.824;2023-02-28T06:45:45;13.70;;;5.30;;
74908;SDS011;63468;52.058;4.824;2023-02-28T06:48:11;9.88;;;5.50;;
74908;SDS011;63468;52.058;4.824;2023-02-28T06:50:36;13.82;;;6.32;;
74908;SDS011;63468;52.058;4.824;2023-02-28T06:53:02;13.27;;;6.60;;
74908;SDS011;63468;52.058;4.824;2023-02-28T06:55:27;12.15;;;5.88;;
74908;SDS011;63468;52.058;4.824;2023-02-28T06:57:53;13.70;;;6.60;;
74908;SDS011;63468;52.058;4.824;2023-02-28T07:00:19;11.95;;;6.38;;
74908;SDS011;63468;52.058;4.824;2023-02-28T07:02:45;11.70;;;6.03;;
74908;SDS011;63468;52.058;4.824;2023-02-28T07:05:11;9.80;;;5.68;;
74908;SDS011;63468;52.058;4.824;2023-02-28T07:07:37;11.95;;;6.35;;
74908;SDS011;63468;52.058;4.824;2023-02-28T07:10:05;11.60;;;7.00;;
74908;SDS011;63468;52.058;4.824;2023-02-28T07:12:31;14.10;;;7.28;;
74908;SDS011;63468;52.058;4.824;2023-02-28T07:14:57;12.20;;;6.80;;
74908;SDS011;63468;52.058;4.824;2023-02-28T07:17:22;12.85;;;6.75;;
74908;SDS011;63468;52.058;4.824;2023-02-28T07:19:47;14.23;;;7.20;;
74908;SDS011;63468;52.058;4.824;2023-02-28T07:22:13;12.07;;;7.00;;
74908;SDS011;63468;52.058;4.824;2023-02-28T07:24:38;14.10;;;6.47;;
74908;SDS011;63468;52.058;4.824;2023-02-28T07:27:03;12.43;;;7.32;;
74908;SDS011;63468;52.058;4.824;2023-02-28T07:29:29;13.40;;;8.07;;
74908;SDS011;63468;52.058;4.824;2023-02-28T07:31:54;13.18;;;6.90;;
74908;SDS011;63468;52.058;4.824;2023-02-28T07:34:20;13.13;;;7.22;;
74908;SDS011;63468;52.058;4.824;2023-02-28T07:36:46;12.15;;;6.85;;
74908;SDS011;63468;52.058;4.824;2023-02-28T07:39:11;13.57;;;7.03;;
74908;SDS011;63468;52.058;4.824;2023-02-28T07:41:36;14.00;;;7.03;;
74908;SDS011;63468;52.058;4.824;2023-02-28T07:44:08;14.13;;;7.95;;
74908;SDS011;63468;52.058;4.824;2023-02-28T07:46:34;12.70;;;7.18;;
74908;SDS011;63468;52.058;4.824;2023-02-28T07:49:01;15.43;;;8.18;;
74908;SDS011;63468;52.058;4.824;2023-02-28T07:51:28;17.08;;;8.32;;
74908;SDS011;63468;52.058;4.824;2023-02-28T07:53:53;18.95;;;9.77;;
74908;SDS011;63468;52.058;4.824;2023-02-28T07:56:19;18.80;;;9.20;;
74908;SDS011;63468;52.058;4.824;2023-02-28T07:58:44;22.40;;;10.80;;
74908;SDS011;63468;52.058;4.824;2023-02-28T08:01:10;16.05;;;9.75;;
74908;SDS011;63468;52.058;4.824;2023-02-28T08:03:36;18.67;;;10.40;;
74908;SDS011;63468;52.058;4.824;2023-02-28T08:06:06;17.38;;;10.57;;
74908;SDS011;63468;52.058;4.824;2023-02-28T08:08:32;16.13;;;9.70;;
74908;SDS011;63468;52.058;4.824;2023-02-28T08:11:01;16.92;;;9.82;;
74908;SDS011;63468;52.058;4.824;2023-02-28T08:13:28;18.08;;;9.63;;
74908;SDS011;63468;52.058;4.824;2023-02-28T08:15:54;16.35;;;9.32;;
74908;SDS011;63468;52.058;4.824;2023-02-28T08:18:20;17.50;;;9.55;;
74908;SDS011;63468;52.058;4.824;2023-02-28T08:20:46;19.17;;;10.68;;
74908;SDS011;63468;52.058;4.824;2023-02-28T08:23:11;17.05;;;10.65;;
74908;SDS011;63468;52.058;4.824;2023-02-28T08:25:36;18.55;;;10.57;;
74908;SDS011;63468;52.058;4.824;2023-02-28T08:28:01;16.88;;;11.07;;
74908;SDS011;63468;52.058;4.824;2023-02-28T08:30:27;17.13;;;10.65;;
74908;SDS011;63468;52.058;4.824;2023-02-28T08:32:52;16.88;;;10.48;;
74908;SDS011;63468;52.058;4.824;2023-02-28T08:35:17;14.93;;;9.75;;
74908;SDS011;63468;52.058;4.824;2023-02-28T08:37:43;14.70;;;9.60;;
74908;SDS011;63468;52.058;4.824;2023-02-28T08:40:08;15.15;;;8.73;;
74908;SDS011;63468;52.058;4.824;2023-02-28T08:42:34;17.73;;;10.75;;
74908;SDS011;63468;52.058;4.824;2023-02-28T08:45:00;13.70;;;9.55;;
74908;SDS011;63468;52.058;4.824;2023-02-28T08:47:25;16.13;;;10.13;;
74908;SDS011;63468;52.058;4.824;2023-02-28T08:49:50;18.88;;;10.02;;
74908;SDS011;63468;52.058;4.824;2023-02-28T08:52:16;14.15;;;9.73;;
74908;SDS011;63468;52.058;4.824;2023-02-28T08:54:41;15.77;;;9.38;;
74908;SDS011;63468;52.058;4.824;2023-02-28T08:57:06;13.52;;;8.57;;
74908;SDS011;63468;52.058;4.824;2023-02-28T08:59:32;13.77;;;9.40;;
74908;SDS011;63468;52.058;4.824;2023-02-28T09:01:57;14.82;;;8.02;;
74908;SDS011;63468;52.058;4.824;2023-02-28T09:04:22;14.20;;;8.88;;
74908;SDS011;63468;52.058;4.824;2023-02-28T09:06:48;15.10;;;7.88;;
74908;SDS011;63468;52.058;4.824;2023-02-28T09:09:13;12.32;;;8.13;;
74908;SDS011;63468;52.058;4.824;2023-02-28T09:11:39;16.38;;;8.85;;
74908;SDS011;63468;52.058;4.824;2023-02-28T09:14:05;14.98;;;9.55;;
74908;SDS011;63468;52.058;4.824;2023-02-28T09:16:31;17.05;;;8.50;;
74908;SDS011;63468;52.058;4.824;2023-02-28T09:18:57;16.08;;;7.97;;
74908;SDS011;63468;52.058;4.824;2023-02-28T09:21:22;16.17;;;8.55;;
74908;SDS011;63468;52.058;4.824;2023-02-28T09:23:48;15.77;;;9.27;;
74908;SDS011;63468;52.058;4.824;2023-02-28T09:26:18;17.48;;;9.40;;
74908;SDS011;63468;52.058;4.824;2023-02-28T09:28:45;17.35;;;8.30;;
74908;SDS011;63468;52.058;4.824;2023-02-28T09:31:14;12.50;;;7.35;;
74908;SDS011;63468;52.058;4.824;2023-02-28T09:33:41;12.65;;;8.57;;
74908;SDS011;63468;52.058;4.824;2023-02-28T09:36:07;16.40;;;9.27;;
74908;SDS011;63468;52.058;4.824;2023-02-28T09:38:32;12.48;;;7.18;;
74908;SDS011;63468;52.058;4.824;2023-02-28T09:40:58;11.60;;;7.25;;
74908;SDS011;63468;52.058;4.824;2023-02-28T09:43:26;13.43;;;8.13;;
74908;SDS011;63468;52.058;4.824;2023-02-28T09:48:51;13.38;;;8.07;;
74908;SDS011;63468;52.058;4.824;2023-02-28T09:54:09;15.90;;;9.23;;
74908;SDS011;63468;52.058;4.824;2023-02-28T09:56:44;14.85;;;8.93;;
74908;SDS011;63468;52.058;4.824;2023-02-28T10:02:10;11.90;;;7.88;;
74908;SDS011;63468;52.058;4.824;2023-02-28T10:05:20;11.40;;;7.90;;
74908;SDS011;63468;52.058;4.824;2023-02-28T10:10:35;11.77;;;7.45;;
74908;SDS011;63468;52.058;4.824;2023-02-28T10:13:02;12.52;;;8.13;;
74908;SDS011;63468;52.058;4.824;2023-02-28T10:15:31;11.55;;;7.80;;
74908;SDS011;63468;52.058;4.824;2023-02-28T10:18:02;12.20;;;7.25;;
74908;SDS011;63468;52.058;4.824;2023-02-28T10:20:29;11.20;;;7.15;;
74908;SDS011;63468;52.058;4.824;2023-02-28T10:23:02;11.18;;;6.97;;
74908;SDS011;63468;52.058;4.824;2023-02-28T10:25:32;9.27;;;6.45;;
74908;SDS011;63468;52.058;4.824;2023-02-28T10:28:20;9.90;;;6.88;;
74908;SDS011;63468;52.058;4.824;2023-02-28T10:30:46;9.60;;;6.95;;
74908;SDS011;63468;52.058;4.824;2023-02-28T10:35:47;9.27;;;7.43;;
74908;SDS011;63468;52.058;4.824;2023-02-28T10:38:17;10.18;;;7.38;;
74908;SDS011;63468;52.058;4.824;2023-02-28T10:45:38;10.85;;;8.25;;
74908;SDS011;63468;52.058;4.824;2023-02-28T10:48:26;10.23;;;7.47;;
74908;SDS011;63468;52.058;4.824;2023-02-28T11:03:45;11.23;;;10.07;;
74908;SDS011;63468;52.058;4.824;2023-02-28T11:06:13;9.88;;;8.75;;
74908;SDS011;63468;52.058;4.824;2023-02-28T11:08:44;11.05;;;9.40;;
74908;SDS011;63468;52.058;4.824;2023-02-28T11:11:14;10.73;;;9.73;;
74908;SDS011;63468;52.058;4.824;2023-02-28T11:13:41;10.18;;;9.25;;
74908;SDS011;63468;52.058;4.824;2023-02-28T11:16:09;11.00;;;10.00;;
74908;SDS011;63468;52.058;4.824;2023-02-28T11:18:40;10.27;;;9.20;;
74908;SDS011;63468;52.058;4.824;2023-02-28T11:21:08;10.98;;;9.60;;
74908;SDS011;63468;52.058;4.824;2023-02-28T11:23:35;10.27;;;9.27;;
74908;SDS011;63468;52.058;4.824;2023-02-28T11:26:03;11.60;;;9.10;;
74908;SDS011;63468;52.058;4.824;2023-02-28T11:36:26;11.30;;;10.27;;
74908;SDS011;63468;52.058;4.824;2023-02-28T11:38:55;10.23;;;9.32;;
74908;SDS011;63468;52.058;4.824;2023-02-28T11:52:20;12.10;;;10.98;;
74908;SDS011;63468;52.058;4.824;2023-02-28T11:57:26;12.25;;;10.95;;
74908;SDS011;63468;52.058;4.824;2023-02-28T12:09:39;12.43;;;11.20;;
74908;SDS011;63468;52.058;4.824;2023-02-28T12:11:52;10.80;;;9.85;;
74908;SDS011;63468;52.058;4.824;2023-02-28T12:28:27;11.50;;;10.30;;
74908;SDS011;63468;52.058;4.824;2023-02-28T12:33:24;10.95;;;9.93;;
74908;SDS011;63468;52.058;4.824;2023-02-28T12:35:53;10.88;;;9.80;;
74908;SDS011;63468;52.058;4.824;2023-02-28T12:38:34;10.38;;;9.35;;
74908;SDS011;63468;52.058;4.824;2023-02-28T12:41:03;10.32;;;9.43;;
74908;SDS011;63468;52.058;4.824;2023-02-28T12:43:33;10.18;;;9.27;;
74908;SDS011;63468;52.058;4.824;2023-02-28T12:46:22;10.90;;;9.90;;
74908;SDS011;63468;52.058;4.824;2023-02-28T12:48:53;11.02;;;9.98;;
74908;SDS011;63468;52.058;4.824;2023-02-28T12:51:21;11.38;;;10.20;;
74908;SDS011;63468;52.058;4.824;2023-02-28T12:56:46;10.77;;;9.77;;
74908;SDS011;63468;52.058;4.824;2023-02-28T12:59:18;11.30;;;10.20;;
74908;SDS011;63468;52.058;4.824;2023-02-28T13:04:28;10.50;;;9.50;;
74908;SDS011;63468;52.058;4.824;2023-02-28T13:10:21;11.38;;;10.30;;
74908;SDS011;63468;52.058;4.824;2023-02-28T13:12:50;11.15;;;9.50;;
74908;SDS011;63468;52.058;4.824;2023-02-28T13:15:18;10.85;;;9.82;;
74908;SDS011;63468;52.058;4.824;2023-02-28T13:17:49;10.07;;;9.18;;
74908;SDS011;63468;52.058;4.824;2023-02-28T13:20:17;11.13;;;9.40;;
74908;SDS011;63468;52.058;4.824;2023-02-28T13:22:49;10.38;;;9.48;;
74908;SDS011;63468;52.058;4.824;2023-02-28T13:27:47;10.10;;;9.20;;
74908;SDS011;63468;52.058;4.824;2023-02-28T13:35:55;9.88;;;8.88;;
74908;SDS011;63468;52.058;4.824;2023-02-28T13:49:25;10.93;;;9.82;;
74908;SDS011;63468;52.058;4.824;2023-02-28T13:51:52;10.35;;;9.45;;
74908;SDS011;63468;52.058;4.824;2023-02-28T13:57:25;9.85;;;8.85;;
74908;SDS011;63468;52.058;4.824;2023-02-28T14:05:25;9.52;;;8.63;;
74908;SDS011;63468;52.058;4.824;2023-02-28T14:07:53;10.32;;;9.32;;
74908;SDS011;63468;52.058;4.824;2023-02-28T14:10:24;9.77;;;8.88;;
74908;SDS011;63468;52.058;4.824;2023-02-28T14:18:36;9.32;;;8.45;;
74908;SDS011;63468;52.058;4.824;2023-02-28T14:21:22;8.98;;;8.07;;
74908;SDS011;63468;52.058;4.824;2023-02-28T14:31:58;8.30;;;7.50;;
74908;SDS011;63468;52.058;4.824;2023-02-28T14:34:34;11.10;;;8.68;;
74908;SDS011;63468;52.058;4.824;2023-02-28T14:37:02;8.85;;;8.00;;
74908;SDS011;63468;52.058;4.824;2023-02-28T14:39:28;8.45;;;7.55;;
74908;SDS011;63468;52.058;4.824;2023-02-28T14:41:55;8.55;;;7.65;;
74908;SDS011;63468;52.058;4.824;2023-02-28T14:44:24;8.82;;;7.93;;
74908;SDS011;63468;52.058;4.824;2023-02-28T14:47:00;9.05;;;7.35;;
74908;SDS011;63468;52.058;4.824;2023-02-28T14:49:43;9.32;;;7.85;;
74908;SDS011;63468;52.058;4.824;2023-02-28T14:54:45;8.10;;;6.97;;
74908;SDS011;63468;52.058;4.824;2023-02-28T14:57:27;8.90;;;7.82;;
74908;SDS011;63468;52.058;4.824;2023-02-28T15:00:02;10.68;;;8.43;;
74908;SDS011;63468;52.058;4.824;2023-02-28T15:02:41;12.23;;;8.10;;
74908;SDS011;63468;52.058;4.824;2023-02-28T15:07:42;8.23;;;7.32;;
74908;SDS011;63468;52.058;4.824;2023-02-28T15:10:13;8.35;;;7.55;;
74908;SDS011;63468;52.058;4.824;2023-02-28T15:15:15;9.30;;;7.63;;
74908;SDS011;63468;52.058;4.824;2023-02-28T15:17:42;8.60;;;7.70;;
74908;SDS011;63468;52.058;4.824;2023-02-28T15:20:11;7.85;;;7.05;;
74908;SDS011;63468;52.058;4.824;2023-02-28T15:22:37;7.55;;;6.70;;
74908;SDS011;63468;52.058;4.824;2023-02-28T15:25:03;8.80;;;7.65;;
74908;SDS011;63468;52.058;4.824;2023-02-28T15:27:31;12.15;;;7.78;;
74908;SDS011;63468;52.058;4.824;2023-02-28T15:29:58;9.30;;;7.32;;
74908;SDS011;63468;52.058;4.824;2023-02-28T15:34:50;11.88;;;8.50;;
74908;SDS011;63468;52.058;4.824;2023-02-28T15:43:13;11.20;;;8.07;;
74908;SDS011;63468;52.058;4.824;2023-02-28T15:48:23;12.88;;;7.53;;
74908;SDS011;63468;52.058;4.824;2023-02-28T15:50:55;12.40;;;7.75;;
74908;SDS011;63468;52.058;4.824;2023-02-28T15:53:26;11.35;;;6.93;;
74908;SDS011;63468;52.058;4.824;2023-02-28T15:56:22;9.30;;;6.87;;
74908;SDS011;63468;52.058;4.824;2023-02-28T15:58:49;11.65;;;7.38;;
74908;SDS011;63468;52.058;4.824;2023-02-28T16:03:53;9.60;;;6.40;;
74908;SDS011;63468;52.058;4.824;2023-02-28T16:06:23;10.27;;;6.78;;
74908;SDS011;63468;52.058;4.824;2023-02-28T16:08:51;13.45;;;6.88;;
74908;SDS011;63468;52.058;4.824;2023-02-28T16:11:18;9.95;;;6.53;;
74908;SDS011;63468;52.058;4.824;2023-02-28T16:13:44;10.60;;;6.72;;
74908;SDS011;63468;52.058;4.824;2023-02-28T16:16:14;8.43;;;5.75;;
74908;SDS011;63468;52.058;4.824;2023-02-28T16:18:40;9.48;;;6.28;;
74908;SDS011;63468;52.058;4.824;2023-02-28T16:21:06;11.73;;;6.63;;
74908;SDS011;63468;52.058;4.824;2023-02-28T16:23:31;10.63;;;6.22;;
74908;SDS011;63468;52.058;4.824;2023-02-28T16:25:56;9.45;;;6.35;;
74908;SDS011;63468;52.058;4.824;2023-02-28T16:28:28;9.77;;;6.93;;
74908;SDS011;63468;52.058;4.824;2023-02-28T16:30:57;10.27;;;6.75;;
74908;SDS011;63468;52.058;4.824;2023-02-28T16:33:24;10.07;;;6.38;;
74908;SDS011;63468;52.058;4.824;2023-02-28T16:35:49;13.02;;;6.93;;
74908;SDS011;63468;52.058;4.824;2023-02-28T16:38:14;8.43;;;5.82;;
74908;SDS011;63468;52.058;4.824;2023-02-28T16:40:40;10.60;;;6.63;;
74908;SDS011;63468;52.058;4.824;2023-02-28T16:43:07;11.85;;;6.82;;
74908;SDS011;63468;52.058;4.824;2023-02-28T16:45:35;13.38;;;6.80;;
74908;SDS011;63468;52.058;4.824;2023-02-28T16:48:00;12.60;;;6.90;;
74908;SDS011;63468;52.058;4.824;2023-02-28T16:50:27;11.20;;;7.68;;
74908;SDS011;63468;52.058;4.824;2023-02-28T16:52:54;9.15;;;6.15;;
74908;SDS011;63468;52.058;4.824;2023-02-28T16:55:20;10.10;;;6.47;;
74908;SDS011;63468;52.058;4.824;2023-02-28T16:57:53;10.48;;;6.55;;
74908;SDS011;63468;52.058;4.824;2023-02-28T17:00:21;12.93;;;6.63;;
74908;SDS011;63468;52.058;4.824;2023-02-28T17:02:46;14.45;;;8.10;;
74908;SDS011;63468;52.058;4.824;2023-02-28T17:05:12;14.25;;;7.72;;
74908;SDS011;63468;52.058;4.824;2023-02-28T17:07:38;14.45;;;7.38;;
74908;SDS011;63468;52.058;4.824;2023-02-28T17:10:12;15.55;;;7.97;;
74908;SDS011;63468;52.058;4.824;2023-02-28T17:12:39;12.88;;;8.07;;
74908;SDS011;63468;52.058;4.824;2023-02-28T17:15:04;11.57;;;6.32;;
74908;SDS011;63468;52.058;4.824;2023-02-28T17:17:31;12.43;;;6.25;;
74908;SDS011;63468;52.058;4.824;2023-02-28T17:19:56;12.55;;;6.00;;
74908;SDS011;63468;52.058;4.824;2023-02-28T17:22:22;12.55;;;5.50;;
74908;SDS011;63468;52.058;4.824;2023-02-28T17:24:47;10.02;;;5.72;;
74908;SDS011;63468;52.058;4.824;2023-02-28T17:27:12;14.13;;;6.32;;
74908;SDS011;63468;52.058;4.824;2023-02-28T17:29:38;13.05;;;4.93;;
74908;SDS011;63468;52.058;4.824;2023-02-28T17:32:03;12.10;;;5.65;;
74908;SDS011;63468;52.058;4.824;2023-02-28T17:34:29;9.60;;;5.72;;
74908;SDS011;63468;52.058;4.824;2023-02-28T17:36:54;10.52;;;5.65;;
74908;SDS011;63468;52.058;4.824;2023-02-28T17:39:19;14.30;;;5.05;;
74908;SDS011;63468;52.058;4.824;2023-02-28T17:41:49;11.90;;;5.22;;
74908;SDS011;63468;52.058;4.824;2023-02-28T17:44:18;10.13;;;5.57;;
74908;SDS011;63468;52.058;4.824;2023-02-28T17:46:44;11.55;;;5.30;;